sensor_id;sensor_type;location;lat;lon;timestamp;P1;durP1;ratioP1;P2;durP2;ratioP2
1026;SDS011;502;48.746;9.214;2023-03-01T00:00:09;18.17;;;11.03;;
1026;SDS011;502;48.746;9.214;2023-03-01T00:02:37;15.37;;;10.30;;
1026;SDS011;502;48.746;9.214;2023-03-01T00:05:06;12.57;;;9.60;;
1026;SDS011;502;48.746;9.214;2023-03-01T00:07:33;16.60;;;11.30;;
1026;SDS011;502;48.746;9.214;2023-03-01T00:09:59;12.63;;;9.37;;
1026;SDS011;502;48.746;9.214;2023-03-01T00:12:26;17.47;;;11.60;;
1026;SDS011;502;48.746;9.214;2023-03-01T00:14:53;14.87;;;10.40;;
1026;SDS011;502;48.746;9.214;2023-03-01T00:17:19;15.50;;;10.30;;
1026;SDS011;502;48.746;9.214;2023-03-01T00:19:46;16.40;;;10.53;;
1026;SDS011;502;48.746;9.214;2023-03-01T00:22:14;18.90;;;10.47;;
1026;SDS011;502;48.746;9.214;2023-03-01T00:24:41;14.63;;;10.80;;
1026;SDS011;502;48.746;9.214;2023-03-01T00:27:07;16.00;;;10.73;;
1026;SDS011;502;48.746;9.214;2023-03-01T00:29:34;13.47;;;9.03;;
1026;SDS011;502;48.746;9.214;2023-03-01T00:32:01;16.37;;;10.80;;
1026;SDS011;502;48.746;9.214;2023-03-01T00:34:27;16.50;;;10.73;;
1026;SDS011;502;48.746;9.214;2023-03-01T00:36:54;15.60;;;10.60;;
1026;SDS011;502;48.746;9.214;2023-03-01T00:39:31;15.63;;;10.23;;
1026;SDS011;502;48.746;9.214;2023-03-01T00:41:58;17.73;;;11.70;;
1026;SDS011;502;48.746;9.214;2023-03-01T00:44:25;15.80;;;11.47;;
1026;SDS011;502;48.746;9.214;2023-03-01T00:46:53;14.50;;;10.30;;
1026;SDS011;502;48.746;9.214;2023-03-01T00:49:20;16.90;;;11.40;;
1026;SDS011;502;48.746;9.214;2023-03-01T00:51:49;17.10;;;11.00;;
1026;SDS011;502;48.746;9.214;2023-03-01T00:54:16;13.27;;;9.30;;
1026;SDS011;502;48.746;9.214;2023-03-01T00:56:44;13.50;;;10.30;;
1026;SDS011;502;48.746;9.214;2023-03-01T00:59:10;19.73;;;11.17;;
1026;SDS011;502;48.746;9.214;2023-03-01T01:01:38;17.47;;;10.77;;
1026;SDS011;502;48.746;9.214;2023-03-01T01:04:06;13.90;;;9.40;;
1026;SDS011;502;48.746;9.214;2023-03-01T01:06:34;18.23;;;10.80;;
1026;SDS011;502;48.746;9.214;2023-03-01T01:09:02;13.53;;;10.00;;
1026;SDS011;502;48.746;9.214;2023-03-01T01:11:31;16.23;;;10.70;;
1026;SDS011;502;48.746;9.214;2023-03-01T01:13:59;13.63;;;9.80;;
1026;SDS011;502;48.746;9.214;2023-03-01T01:16:26;18.33;;;11.50;;
1026;SDS011;502;48.746;9.214;2023-03-01T01:18:54;15.93;;;11.07;;
1026;SDS011;502;48.746;9.214;2023-03-01T01:21:22;17.77;;;11.50;;
1026;SDS011;502;48.746;9.214;2023-03-01T01:23:49;13.80;;;10.10;;
1026;SDS011;502;48.746;9.214;2023-03-01T01:26:17;16.67;;;10.37;;
1026;SDS011;502;48.746;9.214;2023-03-01T01:28:45;15.87;;;10.10;;
1026;SDS011;502;48.746;9.214;2023-03-01T01:31:14;16.90;;;11.17;;
1026;SDS011;502;48.746;9.214;2023-03-01T01:33:41;16.93;;;10.03;;
1026;SDS011;502;48.746;9.214;2023-03-01T01:36:08;17.13;;;10.20;;
1026;SDS011;502;48.746;9.214;2023-03-01T01:38:36;21.20;;;12.23;;
1026;SDS011;502;48.746;9.214;2023-03-01T01:41:04;13.80;;;9.27;;
1026;SDS011;502;48.746;9.214;2023-03-01T01:43:33;16.10;;;10.47;;
1026;SDS011;502;48.746;9.214;2023-03-01T01:46:01;16.83;;;10.30;;
1026;SDS011;502;48.746;9.214;2023-03-01T01:48:32;16.40;;;11.27;;
1026;SDS011;502;48.746;9.214;2023-03-01T01:51:06;14.50;;;10.03;;
1026;SDS011;502;48.746;9.214;2023-03-01T01:53:35;17.83;;;10.67;;
1026;SDS011;502;48.746;9.214;2023-03-01T01:56:02;19.90;;;11.80;;
1026;SDS011;502;48.746;9.214;2023-03-01T01:58:30;18.53;;;11.50;;
1026;SDS011;502;48.746;9.214;2023-03-01T02:00:56;18.57;;;11.80;;
1026;SDS011;502;48.746;9.214;2023-03-01T02:03:26;21.50;;;12.57;;
1026;SDS011;502;48.746;9.214;2023-03-01T02:05:58;17.33;;;10.93;;
1026;SDS011;502;48.746;9.214;2023-03-01T02:08:30;17.17;;;11.30;;
1026;SDS011;502;48.746;9.214;2023-03-01T02:10:58;15.03;;;11.10;;
1026;SDS011;502;48.746;9.214;2023-03-01T02:13:26;18.23;;;10.63;;
1026;SDS011;502;48.746;9.214;2023-03-01T02:15:53;18.20;;;11.10;;
1026;SDS011;502;48.746;9.214;2023-03-01T02:18:20;16.90;;;11.33;;
1026;SDS011;502;48.746;9.214;2023-03-01T02:20:52;17.70;;;12.47;;
1026;SDS011;502;48.746;9.214;2023-03-01T02:23:27;16.73;;;11.70;;
1026;SDS011;502;48.746;9.214;2023-03-01T02:25:56;20.00;;;11.73;;
1026;SDS011;502;48.746;9.214;2023-03-01T02:28:28;18.50;;;10.83;;
1026;SDS011;502;48.746;9.214;2023-03-01T02:30:57;18.43;;;11.90;;
1026;SDS011;502;48.746;9.214;2023-03-01T02:33:41;17.00;;;11.30;;
1026;SDS011;502;48.746;9.214;2023-03-01T02:36:09;17.30;;;11.30;;
1026;SDS011;502;48.746;9.214;2023-03-01T02:38:38;20.57;;;11.40;;
1026;SDS011;502;48.746;9.214;2023-03-01T02:41:05;17.70;;;11.37;;
1026;SDS011;502;48.746;9.214;2023-03-01T02:43:34;18.80;;;12.13;;
1026;SDS011;502;48.746;9.214;2023-03-01T02:46:04;20.10;;;12.00;;
1026;SDS011;502;48.746;9.214;2023-03-01T02:48:39;17.53;;;11.73;;
1026;SDS011;502;48.746;9.214;2023-03-01T02:51:09;19.40;;;12.10;;
1026;SDS011;502;48.746;9.214;2023-03-01T02:53:45;19.57;;;10.40;;
1026;SDS011;502;48.746;9.214;2023-03-01T02:56:18;17.20;;;10.50;;
1026;SDS011;502;48.746;9.214;2023-03-01T02:58:46;20.43;;;11.30;;
1026;SDS011;502;48.746;9.214;2023-03-01T03:01:17;20.87;;;10.87;;
1026;SDS011;502;48.746;9.214;2023-03-01T03:03:44;18.97;;;12.40;;
1026;SDS011;502;48.746;9.214;2023-03-01T03:06:12;18.53;;;11.80;;
1026;SDS011;502;48.746;9.214;2023-03-01T03:08:40;17.53;;;11.20;;
1026;SDS011;502;48.746;9.214;2023-03-01T03:11:06;19.87;;;10.30;;
1026;SDS011;502;48.746;9.214;2023-03-01T03:13:33;17.70;;;11.77;;
1026;SDS011;502;48.746;9.214;2023-03-01T03:16:01;18.33;;;11.50;;
1026;SDS011;502;48.746;9.214;2023-03-01T03:18:29;18.33;;;12.43;;
1026;SDS011;502;48.746;9.214;2023-03-01T03:20:56;16.10;;;11.10;;
1026;SDS011;502;48.746;9.214;2023-03-01T03:23:23;17.70;;;12.63;;
1026;SDS011;502;48.746;9.214;2023-03-01T03:25:50;19.10;;;11.43;;
1026;SDS011;502;48.746;9.214;2023-03-01T03:28:17;22.37;;;13.40;;
1026;SDS011;502;48.746;9.214;2023-03-01T03:30:44;20.73;;;12.70;;
1026;SDS011;502;48.746;9.214;2023-03-01T03:33:13;20.67;;;12.70;;
1026;SDS011;502;48.746;9.214;2023-03-01T03:35:40;15.80;;;11.53;;
1026;SDS011;502;48.746;9.214;2023-03-01T03:38:09;15.37;;;11.50;;
1026;SDS011;502;48.746;9.214;2023-03-01T03:40:41;19.10;;;12.40;;
1026;SDS011;502;48.746;9.214;2023-03-01T03:43:10;16.97;;;11.67;;
1026;SDS011;502;48.746;9.214;2023-03-01T03:45:38;21.63;;;13.40;;
1026;SDS011;502;48.746;9.214;2023-03-01T03:48:05;18.80;;;12.00;;
1026;SDS011;502;48.746;9.214;2023-03-01T03:50:34;19.07;;;11.93;;
1026;SDS011;502;48.746;9.214;2023-03-01T03:53:02;20.37;;;12.60;;
1026;SDS011;502;48.746;9.214;2023-03-01T03:55:29;18.07;;;13.00;;
1026;SDS011;502;48.746;9.214;2023-03-01T03:57:58;22.70;;;12.33;;
1026;SDS011;502;48.746;9.214;2023-03-01T04:00:27;19.07;;;12.83;;
1026;SDS011;502;48.746;9.214;2023-03-01T04:02:54;18.47;;;12.20;;
1026;SDS011;502;48.746;9.214;2023-03-01T04:05:21;17.23;;;11.90;;
1026;SDS011;502;48.746;9.214;2023-03-01T04:07:50;19.87;;;12.30;;
1026;SDS011;502;48.746;9.214;2023-03-01T04:10:26;18.23;;;11.77;;
1026;SDS011;502;48.746;9.214;2023-03-01T04:12:53;18.67;;;11.70;;
1026;SDS011;502;48.746;9.214;2023-03-01T04:15:21;18.30;;;11.93;;
1026;SDS011;502;48.746;9.214;2023-03-01T04:17:49;19.20;;;11.93;;
1026;SDS011;502;48.746;9.214;2023-03-01T04:20:18;19.60;;;12.07;;
1026;SDS011;502;48.746;9.214;2023-03-01T04:22:51;20.97;;;12.27;;
1026;SDS011;502;48.746;9.214;2023-03-01T04:25:18;18.03;;;12.17;;
1026;SDS011;502;48.746;9.214;2023-03-01T04:27:45;17.30;;;11.87;;
1026;SDS011;502;48.746;9.214;2023-03-01T04:30:12;23.57;;;13.13;;
1026;SDS011;502;48.746;9.214;2023-03-01T04:32:39;16.90;;;11.83;;
1026;SDS011;502;48.746;9.214;2023-03-01T04:35:06;18.10;;;11.40;;
1026;SDS011;502;48.746;9.214;2023-03-01T04:37:33;19.43;;;13.17;;
1026;SDS011;502;48.746;9.214;2023-03-01T04:40:02;19.67;;;12.57;;
1026;SDS011;502;48.746;9.214;2023-03-01T04:42:38;15.93;;;11.37;;
1026;SDS011;502;48.746;9.214;2023-03-01T04:45:05;19.07;;;13.73;;
1026;SDS011;502;48.746;9.214;2023-03-01T04:47:38;19.30;;;13.30;;
1026;SDS011;502;48.746;9.214;2023-03-01T04:50:06;20.17;;;11.40;;
1026;SDS011;502;48.746;9.214;2023-03-01T04:52:34;17.07;;;12.23;;
1026;SDS011;502;48.746;9.214;2023-03-01T04:55:02;18.87;;;12.07;;
1026;SDS011;502;48.746;9.214;2023-03-01T04:57:29;20.20;;;12.27;;
1026;SDS011;502;48.746;9.214;2023-03-01T04:59:56;19.27;;;12.90;;
1026;SDS011;502;48.746;9.214;2023-03-01T05:02:23;20.47;;;12.27;;
1026;SDS011;502;48.746;9.214;2023-03-01T05:04:49;19.23;;;12.30;;
1026;SDS011;502;48.746;9.214;2023-03-01T05:07:17;21.13;;;12.13;;
1026;SDS011;502;48.746;9.214;2023-03-01T05:09:44;22.10;;;13.57;;
1026;SDS011;502;48.746;9.214;2023-03-01T05:12:13;23.43;;;13.57;;
1026;SDS011;502;48.746;9.214;2023-03-01T05:14:40;20.03;;;11.73;;
1026;SDS011;502;48.746;9.214;2023-03-01T05:17:07;20.70;;;12.90;;
1026;SDS011;502;48.746;9.214;2023-03-01T05:19:34;23.17;;;13.40;;
1026;SDS011;502;48.746;9.214;2023-03-01T05:22:01;19.60;;;12.70;;
1026;SDS011;502;48.746;9.214;2023-03-01T05:24:29;20.30;;;12.30;;
1026;SDS011;502;48.746;9.214;2023-03-01T05:26:57;18.47;;;12.80;;
1026;SDS011;502;48.746;9.214;2023-03-01T05:29:26;17.93;;;12.80;;
1026;SDS011;502;48.746;9.214;2023-03-01T05:31:53;17.80;;;11.47;;
1026;SDS011;502;48.746;9.214;2023-03-01T05:34:22;20.40;;;13.10;;
1026;SDS011;502;48.746;9.214;2023-03-01T05:36:50;23.90;;;13.80;;
1026;SDS011;502;48.746;9.214;2023-03-01T05:39:18;19.83;;;13.20;;
1026;SDS011;502;48.746;9.214;2023-03-01T05:41:46;17.60;;;11.70;;
1026;SDS011;502;48.746;9.214;2023-03-01T05:44:13;19.13;;;11.73;;
1026;SDS011;502;48.746;9.214;2023-03-01T05:46:41;18.20;;;13.13;;
1026;SDS011;502;48.746;9.214;2023-03-01T05:49:08;21.00;;;13.77;;
1026;SDS011;502;48.746;9.214;2023-03-01T05:51:34;20.53;;;13.80;;
1026;SDS011;502;48.746;9.214;2023-03-01T05:54:01;20.53;;;14.27;;
1026;SDS011;502;48.746;9.214;2023-03-01T05:56:30;21.50;;;13.17;;
1026;SDS011;502;48.746;9.214;2023-03-01T05:58:59;21.90;;;13.40;;
1026;SDS011;502;48.746;9.214;2023-03-01T06:01:25;20.47;;;14.00;;
1026;SDS011;502;48.746;9.214;2023-03-01T06:03:54;20.87;;;13.43;;
1026;SDS011;502;48.746;9.214;2023-03-01T06:06:20;21.03;;;13.30;;
1026;SDS011;502;48.746;9.214;2023-03-01T06:08:47;19.10;;;13.03;;
1026;SDS011;502;48.746;9.214;2023-03-01T06:11:14;20.07;;;12.90;;
1026;SDS011;502;48.746;9.214;2023-03-01T06:13:41;18.43;;;11.93;;
1026;SDS011;502;48.746;9.214;2023-03-01T06:16:08;19.57;;;13.30;;
1026;SDS011;502;48.746;9.214;2023-03-01T06:18:35;21.27;;;13.57;;
1026;SDS011;502;48.746;9.214;2023-03-01T06:21:04;20.70;;;13.77;;
1026;SDS011;502;48.746;9.214;2023-03-01T06:23:31;20.57;;;13.93;;
1026;SDS011;502;48.746;9.214;2023-03-01T06:25:59;19.27;;;12.60;;
1026;SDS011;502;48.746;9.214;2023-03-01T06:28:26;19.23;;;12.60;;
1026;SDS011;502;48.746;9.214;2023-03-01T06:31:01;20.23;;;13.80;;
1026;SDS011;502;48.746;9.214;2023-03-01T06:33:28;19.83;;;13.13;;
1026;SDS011;502;48.746;9.214;2023-03-01T06:35:55;22.03;;;14.03;;
1026;SDS011;502;48.746;9.214;2023-03-01T06:38:23;21.97;;;14.20;;
1026;SDS011;502;48.746;9.214;2023-03-01T06:40:54;19.70;;;12.80;;
1026;SDS011;502;48.746;9.214;2023-03-01T06:43:21;24.63;;;14.10;;
1026;SDS011;502;48.746;9.214;2023-03-01T06:45:48;22.10;;;13.97;;
1026;SDS011;502;48.746;9.214;2023-03-01T06:48:15;23.93;;;13.53;;
1026;SDS011;502;48.746;9.214;2023-03-01T06:50:42;20.33;;;12.10;;
1026;SDS011;502;48.746;9.214;2023-03-01T06:53:08;24.63;;;15.70;;
1026;SDS011;502;48.746;9.214;2023-03-01T06:55:37;23.70;;;14.20;;
1026;SDS011;502;48.746;9.214;2023-03-01T06:58:04;22.30;;;13.17;;
1026;SDS011;502;48.746;9.214;2023-03-01T07:00:30;18.90;;;12.90;;
1026;SDS011;502;48.746;9.214;2023-03-01T07:02:58;21.90;;;13.67;;
1026;SDS011;502;48.746;9.214;2023-03-01T07:05:25;22.50;;;14.73;;
1026;SDS011;502;48.746;9.214;2023-03-01T07:07:52;22.07;;;13.70;;
1026;SDS011;502;48.746;9.214;2023-03-01T07:10:20;21.60;;;14.07;;
1026;SDS011;502;48.746;9.214;2023-03-01T07:12:48;22.80;;;14.07;;
1026;SDS011;502;48.746;9.214;2023-03-01T07:15:15;25.10;;;15.53;;
1026;SDS011;502;48.746;9.214;2023-03-01T07:17:41;23.50;;;13.30;;
1026;SDS011;502;48.746;9.214;2023-03-01T07:20:10;20.10;;;14.00;;
1026;SDS011;502;48.746;9.214;2023-03-01T07:22:39;22.70;;;13.97;;
1026;SDS011;502;48.746;9.214;2023-03-01T07:25:06;23.30;;;14.00;;
1026;SDS011;502;48.746;9.214;2023-03-01T07:27:33;20.87;;;15.10;;
1026;SDS011;502;48.746;9.214;2023-03-01T07:30:02;23.50;;;14.83;;
1026;SDS011;502;48.746;9.214;2023-03-01T07:32:29;20.73;;;13.60;;
1026;SDS011;502;48.746;9.214;2023-03-01T07:34:56;22.13;;;13.80;;
1026;SDS011;502;48.746;9.214;2023-03-01T07:37:23;18.17;;;13.10;;
1026;SDS011;502;48.746;9.214;2023-03-01T07:39:50;25.00;;;14.70;;
1026;SDS011;502;48.746;9.214;2023-03-01T07:42:17;23.00;;;14.10;;
1026;SDS011;502;48.746;9.214;2023-03-01T07:44:44;27.20;;;14.53;;
1026;SDS011;502;48.746;9.214;2023-03-01T07:47:12;22.60;;;13.67;;
1026;SDS011;502;48.746;9.214;2023-03-01T07:49:39;23.77;;;14.37;;
1026;SDS011;502;48.746;9.214;2023-03-01T07:52:05;20.57;;;14.17;;
1026;SDS011;502;48.746;9.214;2023-03-01T07:54:32;20.10;;;13.83;;
1026;SDS011;502;48.746;9.214;2023-03-01T07:56:59;22.00;;;13.87;;
1026;SDS011;502;48.746;9.214;2023-03-01T07:59:26;18.60;;;12.83;;
1026;SDS011;502;48.746;9.214;2023-03-01T08:01:54;21.73;;;14.83;;
1026;SDS011;502;48.746;9.214;2023-03-01T08:04:22;26.20;;;15.13;;
1026;SDS011;502;48.746;9.214;2023-03-01T08:06:50;20.70;;;14.30;;
1026;SDS011;502;48.746;9.214;2023-03-01T08:09:16;22.27;;;13.97;;
1026;SDS011;502;48.746;9.214;2023-03-01T08:11:43;20.97;;;13.77;;
1026;SDS011;502;48.746;9.214;2023-03-01T08:14:10;19.27;;;13.67;;
1026;SDS011;502;48.746;9.214;2023-03-01T08:16:36;25.03;;;14.60;;
1026;SDS011;502;48.746;9.214;2023-03-01T08:19:04;19.97;;;13.30;;
1026;SDS011;502;48.746;9.214;2023-03-01T08:21:32;22.27;;;14.73;;
1026;SDS011;502;48.746;9.214;2023-03-01T08:24:00;21.77;;;15.10;;
1026;SDS011;502;48.746;9.214;2023-03-01T08:26:27;22.53;;;13.27;;
1026;SDS011;502;48.746;9.214;2023-03-01T08:28:54;22.20;;;14.20;;
1026;SDS011;502;48.746;9.214;2023-03-01T08:31:22;21.37;;;15.20;;
1026;SDS011;502;48.746;9.214;2023-03-01T08:33:50;23.10;;;14.80;;
1026;SDS011;502;48.746;9.214;2023-03-01T08:36:20;25.90;;;15.03;;
1026;SDS011;502;48.746;9.214;2023-03-01T08:38:49;20.37;;;14.23;;
1026;SDS011;502;48.746;9.214;2023-03-01T08:41:15;22.63;;;14.70;;
1026;SDS011;502;48.746;9.214;2023-03-01T08:43:43;22.93;;;15.50;;
1026;SDS011;502;48.746;9.214;2023-03-01T08:46:10;23.03;;;15.37;;
1026;SDS011;502;48.746;9.214;2023-03-01T08:48:38;21.53;;;15.50;;
1026;SDS011;502;48.746;9.214;2023-03-01T08:51:09;21.97;;;15.27;;
1026;SDS011;502;48.746;9.214;2023-03-01T08:53:38;22.13;;;13.67;;
1026;SDS011;502;48.746;9.214;2023-03-01T08:56:06;21.50;;;14.77;;
1026;SDS011;502;48.746;9.214;2023-03-01T08:58:33;23.13;;;14.67;;
1026;SDS011;502;48.746;9.214;2023-03-01T09:01:01;23.97;;;15.40;;
1026;SDS011;502;48.746;9.214;2023-03-01T09:03:33;21.13;;;14.77;;
1026;SDS011;502;48.746;9.214;2023-03-01T09:06:00;23.47;;;15.00;;
1026;SDS011;502;48.746;9.214;2023-03-01T09:08:27;20.77;;;14.40;;
1026;SDS011;502;48.746;9.214;2023-03-01T09:10:54;21.17;;;12.53;;
1026;SDS011;502;48.746;9.214;2023-03-01T09:13:22;21.00;;;13.93;;
1026;SDS011;502;48.746;9.214;2023-03-01T09:15:50;18.03;;;14.03;;
1026;SDS011;502;48.746;9.214;2023-03-01T09:18:16;18.77;;;13.73;;
1026;SDS011;502;48.746;9.214;2023-03-01T09:20:43;21.00;;;14.93;;
1026;SDS011;502;48.746;9.214;2023-03-01T09:23:10;22.47;;;13.97;;
1026;SDS011;502;48.746;9.214;2023-03-01T09:25:37;21.40;;;15.10;;
1026;SDS011;502;48.746;9.214;2023-03-01T09:28:03;21.77;;;15.23;;
1026;SDS011;502;48.746;9.214;2023-03-01T09:30:32;19.50;;;13.43;;
1026;SDS011;502;48.746;9.214;2023-03-01T09:32:59;22.47;;;14.67;;
1026;SDS011;502;48.746;9.214;2023-03-01T09:35:26;20.17;;;13.43;;
1026;SDS011;502;48.746;9.214;2023-03-01T09:37:53;20.63;;;14.70;;
1026;SDS011;502;48.746;9.214;2023-03-01T09:40:20;25.90;;;16.00;;
1026;SDS011;502;48.746;9.214;2023-03-01T09:42:52;22.00;;;14.37;;
1026;SDS011;502;48.746;9.214;2023-03-01T09:45:23;27.13;;;14.40;;
1026;SDS011;502;48.746;9.214;2023-03-01T09:47:54;23.57;;;15.70;;
1026;SDS011;502;48.746;9.214;2023-03-01T09:50:22;19.90;;;12.23;;
1026;SDS011;502;48.746;9.214;2023-03-01T09:52:50;17.30;;;12.37;;
1026;SDS011;502;48.746;9.214;2023-03-01T09:55:24;21.70;;;14.10;;
1026;SDS011;502;48.746;9.214;2023-03-01T09:57:53;22.57;;;15.40;;
1026;SDS011;502;48.746;9.214;2023-03-01T10:00:24;19.60;;;13.60;;
1026;SDS011;502;48.746;9.214;2023-03-01T10:02:59;19.63;;;13.93;;
1026;SDS011;502;48.746;9.214;2023-03-01T10:05:31;23.00;;;13.67;;
1026;SDS011;502;48.746;9.214;2023-03-01T10:08:06;19.50;;;12.77;;
1026;SDS011;502;48.746;9.214;2023-03-01T10:10:46;20.57;;;15.10;;
1026;SDS011;502;48.746;9.214;2023-03-01T10:13:17;23.40;;;15.00;;
1026;SDS011;502;48.746;9.214;2023-03-01T10:15:47;22.70;;;14.50;;
1026;SDS011;502;48.746;9.214;2023-03-01T10:18:22;21.90;;;14.23;;
1026;SDS011;502;48.746;9.214;2023-03-01T10:20:52;22.53;;;14.87;;
1026;SDS011;502;48.746;9.214;2023-03-01T10:23:20;20.93;;;15.67;;
1026;SDS011;502;48.746;9.214;2023-03-01T10:25:47;22.27;;;15.50;;
1026;SDS011;502;48.746;9.214;2023-03-01T10:28:25;21.23;;;13.63;;
1026;SDS011;502;48.746;9.214;2023-03-01T10:30:54;21.87;;;15.13;;
1026;SDS011;502;48.746;9.214;2023-03-01T10:33:23;19.97;;;14.77;;
1026;SDS011;502;48.746;9.214;2023-03-01T10:35:52;23.60;;;15.70;;
1026;SDS011;502;48.746;9.214;2023-03-01T10:38:19;23.17;;;14.77;;
1026;SDS011;502;48.746;9.214;2023-03-01T10:40:51;20.10;;;14.27;;
1026;SDS011;502;48.746;9.214;2023-03-01T10:43:19;25.57;;;16.03;;
1026;SDS011;502;48.746;9.214;2023-03-01T10:45:47;23.40;;;15.67;;
1026;SDS011;502;48.746;9.214;2023-03-01T10:48:15;24.60;;;15.90;;
1026;SDS011;502;48.746;9.214;2023-03-01T10:50:45;20.30;;;14.67;;
1026;SDS011;502;48.746;9.214;2023-03-01T10:55:59;19.47;;;14.10;;
1026;SDS011;502;48.746;9.214;2023-03-01T10:58:28;18.70;;;13.30;;
1026;SDS011;502;48.746;9.214;2023-03-01T11:00:56;22.13;;;16.50;;
1026;SDS011;502;48.746;9.214;2023-03-01T11:03:24;21.90;;;15.10;;
1026;SDS011;502;48.746;9.214;2023-03-01T11:06:06;17.90;;;12.97;;
1026;SDS011;502;48.746;9.214;2023-03-01T11:08:47;20.77;;;13.37;;
1026;SDS011;502;48.746;9.214;2023-03-01T11:11:17;19.00;;;13.10;;
1026;SDS011;502;48.746;9.214;2023-03-01T11:13:54;19.63;;;12.50;;
1026;SDS011;502;48.746;9.214;2023-03-01T11:19:14;19.17;;;12.43;;
1026;SDS011;502;48.746;9.214;2023-03-01T11:21:52;18.40;;;13.27;;
1026;SDS011;502;48.746;9.214;2023-03-01T11:24:23;19.33;;;12.83;;
1026;SDS011;502;48.746;9.214;2023-03-01T11:26:54;20.77;;;14.13;;
1026;SDS011;502;48.746;9.214;2023-03-01T11:29:25;18.30;;;12.23;;
1026;SDS011;502;48.746;9.214;2023-03-01T11:31:54;21.10;;;15.43;;
1026;SDS011;502;48.746;9.214;2023-03-01T11:34:24;20.70;;;14.30;;
1026;SDS011;502;48.746;9.214;2023-03-01T11:37:01;22.30;;;14.90;;
1026;SDS011;502;48.746;9.214;2023-03-01T11:39:31;19.23;;;12.50;;
1026;SDS011;502;48.746;9.214;2023-03-01T11:42:02;20.63;;;14.47;;
1026;SDS011;502;48.746;9.214;2023-03-01T11:44:33;24.20;;;14.80;;
1026;SDS011;502;48.746;9.214;2023-03-01T11:47:06;21.50;;;14.30;;
1026;SDS011;502;48.746;9.214;2023-03-01T11:49:49;20.10;;;13.60;;
1026;SDS011;502;48.746;9.214;2023-03-01T11:52:29;20.33;;;13.80;;
1026;SDS011;502;48.746;9.214;2023-03-01T11:55:07;22.93;;;14.03;;
1026;SDS011;502;48.746;9.214;2023-03-01T11:57:46;19.10;;;13.17;;
1026;SDS011;502;48.746;9.214;2023-03-01T12:00:35;20.03;;;15.03;;
1026;SDS011;502;48.746;9.214;2023-03-01T12:08:54;20.97;;;14.33;;
1026;SDS011;502;48.746;9.214;2023-03-01T12:11:29;16.90;;;12.63;;
1026;SDS011;502;48.746;9.214;2023-03-01T12:14:13;19.00;;;12.60;;
1026;SDS011;502;48.746;9.214;2023-03-01T12:17:01;21.13;;;14.70;;
1026;SDS011;502;48.746;9.214;2023-03-01T12:19:38;18.80;;;13.97;;
1026;SDS011;502;48.746;9.214;2023-03-01T12:22:17;18.13;;;13.43;;
1026;SDS011;502;48.746;9.214;2023-03-01T12:25:00;15.67;;;11.13;;
1026;SDS011;502;48.746;9.214;2023-03-01T12:31:01;17.90;;;13.80;;
1026;SDS011;502;48.746;9.214;2023-03-01T12:33:41;21.90;;;12.97;;
1026;SDS011;502;48.746;9.214;2023-03-01T12:39:06;22.20;;;13.60;;
1026;SDS011;502;48.746;9.214;2023-03-01T12:41:47;19.50;;;12.70;;
1026;SDS011;502;48.746;9.214;2023-03-01T12:44:21;18.60;;;12.40;;
1026;SDS011;502;48.746;9.214;2023-03-01T12:47:02;19.07;;;13.47;;
1026;SDS011;502;48.746;9.214;2023-03-01T12:49:34;18.90;;;14.17;;
1026;SDS011;502;48.746;9.214;2023-03-01T12:52:07;18.90;;;13.70;;
1026;SDS011;502;48.746;9.214;2023-03-01T12:54:37;18.80;;;12.70;;
1026;SDS011;502;48.746;9.214;2023-03-01T12:57:08;16.63;;;12.87;;
1026;SDS011;502;48.746;9.214;2023-03-01T12:59:39;17.73;;;11.87;;
1026;SDS011;502;48.746;9.214;2023-03-01T13:02:12;16.50;;;12.00;;
1026;SDS011;502;48.746;9.214;2023-03-01T13:04:58;16.13;;;10.90;;
1026;SDS011;502;48.746;9.214;2023-03-01T13:07:34;19.70;;;13.50;;
1026;SDS011;502;48.746;9.214;2023-03-01T13:10:11;14.87;;;10.57;;
1026;SDS011;502;48.746;9.214;2023-03-01T13:12:47;17.40;;;12.80;;
1026;SDS011;502;48.746;9.214;2023-03-01T13:15:28;17.37;;;13.60;;
1026;SDS011;502;48.746;9.214;2023-03-01T13:17:57;17.17;;;12.63;;
1026;SDS011;502;48.746;9.214;2023-03-01T13:20:25;20.47;;;14.00;;
1026;SDS011;502;48.746;9.214;2023-03-01T13:23:09;16.63;;;12.40;;
1026;SDS011;502;48.746;9.214;2023-03-01T13:28:48;20.50;;;12.37;;
1026;SDS011;502;48.746;9.214;2023-03-01T13:37:27;16.80;;;12.77;;
1026;SDS011;502;48.746;9.214;2023-03-01T13:39:56;16.50;;;12.33;;
1026;SDS011;502;48.746;9.214;2023-03-01T13:42:40;15.97;;;12.23;;
1026;SDS011;502;48.746;9.214;2023-03-01T13:45:17;17.03;;;10.40;;
1026;SDS011;502;48.746;9.214;2023-03-01T13:47:47;14.23;;;10.70;;
1026;SDS011;502;48.746;9.214;2023-03-01T13:50:18;17.93;;;11.40;;
1026;SDS011;502;48.746;9.214;2023-03-01T13:52:48;14.60;;;11.50;;
1026;SDS011;502;48.746;9.214;2023-03-01T13:55:18;15.10;;;11.63;;
1026;SDS011;502;48.746;9.214;2023-03-01T13:57:47;18.17;;;12.67;;
1026;SDS011;502;48.746;9.214;2023-03-01T14:00:34;18.47;;;13.80;;
1026;SDS011;502;48.746;9.214;2023-03-01T14:03:08;18.57;;;12.80;;
1026;SDS011;502;48.746;9.214;2023-03-01T14:05:37;18.50;;;14.20;;
1026;SDS011;502;48.746;9.214;2023-03-01T14:08:05;20.03;;;15.17;;
1026;SDS011;502;48.746;9.214;2023-03-01T14:10:45;20.43;;;14.47;;
1026;SDS011;502;48.746;9.214;2023-03-01T14:13:27;24.47;;;14.73;;
1026;SDS011;502;48.746;9.214;2023-03-01T14:16:09;19.30;;;13.50;;
1026;SDS011;502;48.746;9.214;2023-03-01T14:18:43;23.23;;;15.60;;
1026;SDS011;502;48.746;9.214;2023-03-01T14:21:17;19.87;;;14.17;;
1026;SDS011;502;48.746;9.214;2023-03-01T14:23:44;18.40;;;14.20;;
1026;SDS011;502;48.746;9.214;2023-03-01T14:26:12;18.80;;;14.87;;
1026;SDS011;502;48.746;9.214;2023-03-01T14:28:38;18.97;;;13.77;;
1026;SDS011;502;48.746;9.214;2023-03-01T14:34:03;20.53;;;16.27;;
1026;SDS011;502;48.746;9.214;2023-03-01T14:36:30;18.07;;;13.33;;
1026;SDS011;502;48.746;9.214;2023-03-01T14:38:58;20.17;;;14.60;;
1026;SDS011;502;48.746;9.214;2023-03-01T14:41:30;15.77;;;11.87;;
1026;SDS011;502;48.746;9.214;2023-03-01T14:43:59;16.30;;;12.60;;
1026;SDS011;502;48.746;9.214;2023-03-01T14:46:29;17.70;;;14.90;;
1026;SDS011;502;48.746;9.214;2023-03-01T14:49:01;18.97;;;13.57;;
1026;SDS011;502;48.746;9.214;2023-03-01T14:51:29;17.30;;;13.03;;
1026;SDS011;502;48.746;9.214;2023-03-01T14:53:56;19.77;;;12.07;;
1026;SDS011;502;48.746;9.214;2023-03-01T14:56:23;17.90;;;12.83;;
1026;SDS011;502;48.746;9.214;2023-03-01T14:58:51;21.87;;;14.07;;
1026;SDS011;502;48.746;9.214;2023-03-01T15:01:18;17.73;;;12.90;;
1026;SDS011;502;48.746;9.214;2023-03-01T15:03:46;20.17;;;14.17;;
1026;SDS011;502;48.746;9.214;2023-03-01T15:06:15;19.20;;;14.30;;
1026;SDS011;502;48.746;9.214;2023-03-01T15:08:44;19.70;;;13.90;;
1026;SDS011;502;48.746;9.214;2023-03-01T15:11:17;19.27;;;13.00;;
1026;SDS011;502;48.746;9.214;2023-03-01T15:13:48;19.73;;;14.77;;
1026;SDS011;502;48.746;9.214;2023-03-01T15:16:15;18.70;;;13.57;;
1026;SDS011;502;48.746;9.214;2023-03-01T15:18:44;23.00;;;14.90;;
1026;SDS011;502;48.746;9.214;2023-03-01T15:21:17;16.03;;;12.17;;
1026;SDS011;502;48.746;9.214;2023-03-01T15:23:49;20.77;;;14.70;;
1026;SDS011;502;48.746;9.214;2023-03-01T15:26:21;21.10;;;14.53;;
1026;SDS011;502;48.746;9.214;2023-03-01T15:28:49;19.93;;;14.53;;
1026;SDS011;502;48.746;9.214;2023-03-01T15:31:18;20.30;;;14.87;;
1026;SDS011;502;48.746;9.214;2023-03-01T15:33:46;21.33;;;14.30;;
1026;SDS011;502;48.746;9.214;2023-03-01T15:39:30;22.10;;;12.90;;
1026;SDS011;502;48.746;9.214;2023-03-01T15:42:02;18.30;;;12.70;;
1026;SDS011;502;48.746;9.214;2023-03-01T15:44:30;16.70;;;11.50;;
1026;SDS011;502;48.746;9.214;2023-03-01T15:46:58;21.60;;;13.60;;
1026;SDS011;502;48.746;9.214;2023-03-01T15:49:27;16.70;;;12.90;;